sensor_id;sensor_type;location;lat;lon;timestamp;pressure;altitude;pressure_sealevel;temperature;humidity
55604;BME280;41468;48.838;9.330;2023-07-28T00:00:54;97595.72;;;18.01;100.00
55604;BME280;41468;48.838;9.330;2023-07-28T00:03:21;97596.50;;;18.01;100.00
55604;BME280;41468;48.838;9.330;2023-07-28T00:05:48;97597.34;;;17.98;100.00
55604;BME280;41468;48.838;9.330;2023-07-28T00:08:15;97602.19;;;17.94;100.00
55604;BME280;41468;48.838;9.330;2023-07-28T00:10:42;97604.88;;;17.98;100.00
55604;BME280;41468;48.838;9.330;2023-07-28T00:13:09;97598.22;;;17.95;100.00
55604;BME280;41468;48.838;9.330;2023-07-28T00:15:36;97597.88;;;17.93;100.00
55604;BME280;41468;48.838;9.330;2023-07-28T00:18:03;97601.59;;;17.86;100.00
55604;BME280;41468;48.838;9.330;2023-07-28T00:20:29;97593.59;;;17.92;100.00
55604;BME280;41468;48.838;9.330;2023-07-28T00:22:56;97593.59;;;17.92;100.00
55604;BME280;41468;48.838;9.330;2023-07-28T00:25:23;97585.28;;;17.92;100.00
55604;BME280;41468;48.838;9.330;2023-07-28T00:27:50;97592.72;;;17.95;100.00
55604;BME280;41468;48.838;9.330;2023-07-28T00:30:17;97585.63;;;17.94;100.00
55604;BME280;41468;48.838;9.330;2023-07-28T00:32:44;97592.78;;;17.92;100.00
55604;BME280;41468;48.838;9.330;2023-07-28T00:35:10;97593.91;;;17.94;100.00
55604;BME280;41468;48.838;9.330;2023-07-28T00:37:37;97584.19;;;17.90;100.00
55604;BME280;41468;48.838;9.330;2023-07-28T00:40:04;97590.81;;;17.92;100.00
55604;BME280;41468;48.838;9.330;2023-07-28T00:42:31;97587.34;;;17.88;100.00
55604;BME280;41468;48.838;9.330;2023-07-28T00:45:01;97587.72;;;17.90;100.00
55604;BME280;41468;48.838;9.330;2023-07-28T00:47:27;97587.72;;;17.90;100.00
55604;BME280;41468;48.838;9.330;2023-07-28T00:49:54;97583.94;;;17.84;100.00
55604;BME280;41468;48.838;9.330;2023-07-28T00:52:22;97570.66;;;17.79;100.00
55604;BME280;41468;48.838;9.330;2023-07-28T00:54:48;97579.69;;;17.79;100.00
55604;BME280;41468;48.838;9.330;2023-07-28T00:57:15;97581.84;;;17.72;100.00
55604;BME280;41468;48.838;9.330;2023-07-28T00:59:45;97592.00;;;17.75;100.00
55604;BME280;41468;48.838;9.330;2023-07-28T01:02:16;97589.75;;;17.70;100.00
55604;BME280;41468;48.838;9.330;2023-07-28T01:04:43;97595.28;;;17.70;100.00
55604;BME280;41468;48.838;9.330;2023-07-28T01:07:14;97589.75;;;17.70;100.00
55604;BME280;41468;48.838;9.330;2023-07-28T01:10:05;97585.97;;;17.63;100.00
55604;BME280;41468;48.838;9.330;2023-07-28T01:12:33;97585.22;;;17.63;100.00
55604;BME280;41468;48.838;9.330;2023-07-28T01:15:00;97583.47;;;17.69;100.00
55604;BME280;41468;48.838;9.330;2023-07-28T01:17:27;97579.59;;;17.66;100.00
55604;BME280;41468;48.838;9.330;2023-07-28T01:19:54;97579.69;;;17.63;100.00
55604;BME280;41468;48.838;9.330;2023-07-28T01:22:46;97576.94;;;17.63;100.00
55604;BME280;41468;48.838;9.330;2023-07-28T01:28:02;97578.91;;;17.62;100.00
55604;BME280;41468;48.838;9.330;2023-07-28T01:30:30;97567.88;;;17.62;100.00
55604;BME280;41468;48.838;9.330;2023-07-28T01:32:57;97577.44;;;17.58;100.00
55604;BME280;41468;48.838;9.330;2023-07-28T01:35:25;97569.94;;;17.58;100.00
55604;BME280;41468;48.838;9.330;2023-07-28T01:37:52;97571.22;;;17.54;100.00
55604;BME280;41468;48.838;9.330;2023-07-28T01:40:20;97569.78;;;17.49;100.00
55604;BME280;41468;48.838;9.330;2023-07-28T01:42:47;97565.19;;;17.42;100.00
55604;BME280;41468;48.838;9.330;2023-07-28T01:45:13;97567.53;;;17.44;100.00
55604;BME280;41468;48.838;9.330;2023-07-28T01:47:40;97569.50;;;17.27;100.00
55604;BME280;41468;48.838;9.330;2023-07-28T01:50:07;97568.81;;;17.23;100.00
55604;BME280;41468;48.838;9.330;2023-07-28T01:52:34;97574.06;;;17.17;100.00
55604;BME280;41468;48.838;9.330;2023-07-28T01:55:01;97575.25;;;17.16;100.00
55604;BME280;41468;48.838;9.330;2023-07-28T01:57:28;97573.19;;;17.04;100.00
55604;BME280;41468;48.838;9.330;2023-07-28T01:59:54;97568.09;;;17.03;100.00
55604;BME280;41468;48.838;9.330;2023-07-28T02:02:21;97569.47;;;16.94;100.00
55604;BME280;41468;48.838;9.330;2023-07-28T02:04:48;97570.59;;;16.97;100.00
55604;BME280;41468;48.838;9.330;2023-07-28T02:07:15;97568.06;;;16.86;100.00
55604;BME280;41468;48.838;9.330;2023-07-28T02:09:42;97559.88;;;16.83;100.00
55604;BME280;41468;48.838;9.330;2023-07-28T02:12:09;97566.28;;;16.76;100.00
55604;BME280;41468;48.838;9.330;2023-07-28T02:14:35;97554.72;;;16.85;100.00
55604;BME280;41468;48.838;9.330;2023-07-28T02:17:02;97563.63;;;16.72;100.00
55604;BME280;41468;48.838;9.330;2023-07-28T02:19:29;97558.47;;;16.74;100.00
55604;BME280;41468;48.838;9.330;2023-07-28T02:21:56;97561.34;;;16.67;100.00
55604;BME280;41468;48.838;9.330;2023-07-28T02:24:22;97561.44;;;16.64;100.00
55604;BME280;41468;48.838;9.330;2023-07-28T02:26:49;97560.81;;;16.56;100.00
55604;BME280;41468;48.838;9.330;2023-07-28T02:29:16;97557.69;;;16.54;100.00
55604;BME280;41468;48.838;9.330;2023-07-28T02:31:49;97547.31;;;16.62;100.00
55604;BME280;41468;48.838;9.330;2023-07-28T02:34:16;97561.34;;;16.67;100.00
55604;BME280;41468;48.838;9.330;2023-07-28T02:36:43;97557.91;;;16.63;100.00
55604;BME280;41468;48.838;9.330;2023-07-28T02:39:10;97563.75;;;16.65;100.00
55604;BME280;41468;48.838;9.330;2023-07-28T02:41:36;97577.53;;;16.65;100.00
55604;BME280;41468;48.838;9.330;2023-07-28T02:44:03;97565.38;;;16.63;100.00
55604;BME280;41468;48.838;9.330;2023-07-28T02:46:30;97584.19;;;16.68;100.00
55604;BME280;41468;48.838;9.330;2023-07-28T02:48:57;97578.94;;;16.73;100.00
55604;BME280;41468;48.838;9.330;2023-07-28T02:51:23;97587.19;;;16.77;100.00
55604;BME280;41468;48.838;9.330;2023-07-28T02:53:56;97586.03;;;16.74;100.00
55604;BME280;41468;48.838;9.330;2023-07-28T02:56:23;97588.78;;;16.74;100.00
55604;BME280;41468;48.838;9.330;2023-07-28T02:58:50;97593.84;;;16.76;100.00
55604;BME280;41468;48.838;9.330;2023-07-28T03:01:17;97601.91;;;16.87;100.00
55604;BME280;41468;48.838;9.330;2023-07-28T03:03:44;97602.53;;;16.94;100.00
55604;BME280;41468;48.838;9.330;2023-07-28T03:06:12;97597.81;;;16.95;100.00
55604;BME280;41468;48.838;9.330;2023-07-28T03:08:39;97604.81;;;16.99;100.00
55604;BME280;41468;48.838;9.330;2023-07-28T03:11:05;97601.38;;;16.95;100.00
55604;BME280;41468;48.838;9.330;2023-07-28T03:13:32;97609.47;;;17.03;100.00
55604;BME280;41468;48.838;9.330;2023-07-28T03:15:59;97621.63;;;17.05;100.00
55604;BME280;41468;48.838;9.330;2023-07-28T03:18:26;97622.34;;;17.09;100.00
55604;BME280;41468;48.838;9.330;2023-07-28T03:20:53;97615.59;;;17.10;100.00
55604;BME280;41468;48.838;9.330;2023-07-28T03:23:20;97624.38;;;17.05;100.00
55604;BME280;41468;48.838;9.330;2023-07-28T03:25:53;97621.69;;;17.02;100.00
55604;BME280;41468;48.838;9.330;2023-07-28T03:28:20;97627.22;;;17.02;100.00
55604;BME280;41468;48.838;9.330;2023-07-28T03:30:47;97630.91;;;16.95;100.00
55604;BME280;41468;48.838;9.330;2023-07-28T03:33:14;97639.16;;;16.95;100.00
55604;BME280;41468;48.838;9.330;2023-07-28T03:35:40;97640.28;;;16.97;100.00
55604;BME280;41468;48.838;9.330;2023-07-28T03:38:18;97648.94;;;16.99;100.00
55604;BME280;41468;48.838;9.330;2023-07-28T03:40:46;97652.53;;;16.96;100.00
55604;BME280;41468;48.838;9.330;2023-07-28T03:43:12;97659.19;;;16.99;100.00
55604;BME280;41468;48.838;9.330;2023-07-28T03:45:39;97662.78;;;16.96;100.00
55604;BME280;41468;48.838;9.330;2023-07-28T03:48:07;97669.94;;;16.93;100.00
55604;BME280;41468;48.838;9.330;2023-07-28T03:50:33;97662.31;;;17.01;100.00
55604;BME280;41468;48.838;9.330;2023-07-28T03:53:00;97673.59;;;17.07;100.00
55604;BME280;41468;48.838;9.330;2023-07-28T03:55:27;97668.66;;;16.98;100.00
55604;BME280;41468;48.838;9.330;2023-07-28T03:57:53;97671.75;;;17.00;100.00
55604;BME280;41468;48.838;9.330;2023-07-28T04:00:20;97678.56;;;16.95;100.00
55604;BME280;41468;48.838;9.330;2023-07-28T04:02:47;97671.84;;;16.96;100.00
55604;BME280;41468;48.838;9.330;2023-07-28T04:05:14;97667.94;;;16.94;100.00
55604;BME280;41468;48.838;9.330;2023-07-28T04:07:41;97665.28;;;16.90;100.00
55604;BME280;41468;48.838;9.330;2023-07-28T04:10:07;97664.69;;;16.99;100.00
55604;BME280;41468;48.838;9.330;2023-07-28T04:12:34;97660.91;;;16.93;100.00
55604;BME280;41468;48.838;9.330;2023-07-28T04:15:01;97664.78;;;16.95;100.00
55604;BME280;41468;48.838;9.330;2023-07-28T04:17:28;97665.38;;;17.03;100.00
55604;BME280;41468;48.838;9.330;2023-07-28T04:19:55;97662.31;;;17.01;100.00
55604;BME280;41468;48.838;9.330;2023-07-28T04:22:21;97662.72;;;16.99;100.00
55604;BME280;41468;48.838;9.330;2023-07-28T04:24:48;97658.69;;;17.04;100.00
55604;BME280;41468;48.838;9.330;2023-07-28T04:27:15;97659.31;;;17.12;100.00
55604;BME280;41468;48.838;9.330;2023-07-28T04:29:42;97652.16;;;17.14;100.00
55604;BME280;41468;48.838;9.330;2023-07-28T04:32:09;97648.56;;;17.17;100.00
55604;BME280;41468;48.838;9.330;2023-07-28T04:34:36;97654.06;;;17.17;100.00
55604;BME280;41468;48.838;9.330;2023-07-28T04:37:02;97652.94;;;17.15;100.00
55604;BME280;41468;48.838;9.330;2023-07-28T04:39:29;97654.94;;;17.14;100.00
55604;BME280;41468;48.838;9.330;2023-07-28T04:41:56;97649.81;;;17.13;100.00
55604;BME280;41468;48.838;9.330;2023-07-28T04:44:23;97646.47;;;17.21;100.00
55604;BME280;41468;48.838;9.330;2023-07-28T04:47:00;97647.69;;;17.20;100.00
55604;BME280;41468;48.838;9.330;2023-07-28T04:49:27;97650.00;;;17.22;100.00
55604;BME280;41468;48.838;9.330;2023-07-28T04:51:54;97650.31;;;17.28;100.00
55604;BME280;41468;48.838;9.330;2023-07-28T04:54:21;97643.56;;;17.29;100.00
55604;BME280;41468;48.838;9.330;2023-07-28T04:56:47;97642.78;;;17.28;100.00
55604;BME280;41468;48.838;9.330;2023-07-28T04:59:16;97644.78;;;17.28;100.00
55604;BME280;41468;48.838;9.330;2023-07-28T05:01:43;97658.22;;;17.26;100.00
55604;BME280;41468;48.838;9.330;2023-07-28T05:04:10;97668.50;;;17.25;100.00
55604;BME280;41468;48.838;9.330;2023-07-28T05:06:37;97658.63;;;17.24;100.00
55604;BME280;41468;48.838;9.330;2023-07-28T05:09:03;97654.69;;;17.25;100.00
55604;BME280;41468;48.838;9.330;2023-07-28T05:11:30;97657.44;;;17.25;100.00
55604;BME280;41468;48.838;9.330;2023-07-28T05:13:57;97655.88;;;17.24;100.00
55604;BME280;41468;48.838;9.330;2023-07-28T05:16:24;97661.84;;;17.22;100.00
55604;BME280;41468;48.838;9.330;2023-07-28T05:18:51;97663.88;;;17.18;100.00
55604;BME280;41468;48.838;9.330;2023-07-28T05:21:18;97675.13;;;17.28;100.00
55604;BME280;41468;48.838;9.330;2023-07-28T05:23:44;97677.81;;;17.31;100.00
55604;BME280;41468;48.838;9.330;2023-07-28T05:26:16;97675.91;;;17.28;100.00
55604;BME280;41468;48.838;9.330;2023-07-28T05:28:43;97676.69;;;17.29;100.00
55604;BME280;41468;48.838;9.330;2023-07-28T05:31:09;97679.78;;;17.31;100.00
55604;BME280;41468;48.838;9.330;2023-07-28T05:33:39;97673.19;;;17.25;100.00
55604;BME280;41468;48.838;9.330;2023-07-28T05:36:06;97676.31;;;17.27;100.00
55604;BME280;41468;48.838;9.330;2023-07-28T05:38:33;97673.56;;;17.27;100.00
55604;BME280;41468;48.838;9.330;2023-07-28T05:41:01;97685.81;;;17.26;100.00
55604;BME280;41468;48.838;9.330;2023-07-28T05:43:30;97691.69;;;17.28;100.00
55604;BME280;41468;48.838;9.330;2023-07-28T05:45:58;97689.69;;;17.28;100.00
55604;BME280;41468;48.838;9.330;2023-07-28T05:48:25;97693.91;;;17.33;100.00
55604;BME280;41468;48.838;9.330;2023-07-28T05:50:52;97696.63;;;17.36;100.00
55604;BME280;41468;48.838;9.330;2023-07-28T05:53:20;97702.13;;;17.36;100.00
55604;BME280;41468;48.838;9.330;2023-07-28T05:55:48;97698.44;;;17.43;100.00
55604;BME280;41468;48.838;9.330;2023-07-28T05:58:15;97696.88;;;17.42;100.00
55604;BME280;41468;48.838;9.330;2023-07-28T06:00:42;97703.09;;;17.46;100.00
55604;BME280;41468;48.838;9.330;2023-07-28T06:03:12;97705.44;;;17.48;100.00
55604;BME280;41468;48.838;9.330;2023-07-28T06:05:39;97703.09;;;17.46;100.00
55604;BME280;41468;48.838;9.330;2023-07-28T06:08:07;97704.66;;;17.47;100.00
55604;BME280;41468;48.838;9.330;2023-07-28T06:10:34;97709.81;;;17.45;100.00
55604;BME280;41468;48.838;9.330;2023-07-28T06:13:01;97709.66;;;17.52;100.00
55604;BME280;41468;48.838;9.330;2023-07-28T06:15:28;97711.72;;;17.48;100.00
55604;BME280;41468;48.838;9.330;2023-07-28T06:17:55;97703.94;;;17.43;100.00
55604;BME280;41468;48.838;9.330;2023-07-28T06:20:22;97716.88;;;17.46;100.00
55604;BME280;41468;48.838;9.330;2023-07-28T06:22:49;97717.31;;;17.44;100.00
55604;BME280;41468;48.838;9.330;2023-07-28T06:25:16;97716.78;;;17.33;100.00
55604;BME280;41468;48.838;9.330;2023-07-28T06:27:42;97720.94;;;17.41;100.00
55604;BME280;41468;48.838;9.330;2023-07-28T06:30:10;97712.72;;;17.38;100.00
55604;BME280;41468;48.838;9.330;2023-07-28T06:32:37;97718.50;;;17.43;100.00
55604;BME280;41468;48.838;9.330;2023-07-28T06:35:04;97729.13;;;17.45;100.00
55604;BME280;41468;48.838;9.330;2023-07-28T06:37:31;97718.88;;;17.45;100.00
55604;BME280;41468;48.838;9.330;2023-07-28T06:39:59;97726.28;;;17.49;100.00
55604;BME280;41468;48.838;9.330;2023-07-28T06:42:26;97734.16;;;17.50;100.00
55604;BME280;41468;48.838;9.330;2023-07-28T06:44:53;97735.28;;;17.53;100.00
55604;BME280;41468;48.838;9.330;2023-07-28T06:47:19;97739.16;;;17.55;100.00
55604;BME280;41468;48.838;9.330;2023-07-28T06:49:46;97739.84;;;17.59;100.00
55604;BME280;41468;48.838;9.330;2023-07-28T06:52:13;97748.59;;;17.58;100.00
55604;BME280;41468;48.838;9.330;2023-07-28T06:54:40;97754.88;;;17.58;100.00
55604;BME280;41468;48.838;9.330;2023-07-28T06:57:06;97758.03;;;17.57;100.00
55604;BME280;41468;48.838;9.330;2023-07-28T06:59:33;97744.97;;;17.61;100.00
55604;BME280;41468;48.838;9.330;2023-07-28T07:02:00;97738.66;;;17.60;100.00
55604;BME280;41468;48.838;9.330;2023-07-28T07:04:27;97745.22;;;17.66;100.00
55604;BME280;41468;48.838;9.330;2023-07-28T07:06:54;97747.84;;;17.74;100.00
55604;BME280;41468;48.838;9.330;2023-07-28T07:09:20;97741.88;;;17.75;100.00
55604;BME280;41468;48.838;9.330;2023-07-28T07:11:47;97751.25;;;17.81;100.00
55604;BME280;41468;48.838;9.330;2023-07-28T07:14:14;97746.31;;;17.89;100.00
55604;BME280;41468;48.838;9.330;2023-07-28T07:16:41;97745.81;;;17.94;100.00
55604;BME280;41468;48.838;9.330;2023-07-28T07:19:08;97750.66;;;18.06;100.00
55604;BME280;41468;48.838;9.330;2023-07-28T07:21:37;97751.06;;;18.05;100.00
55604;BME280;41468;48.838;9.330;2023-07-28T07:24:04;97758.16;;;18.06;100.00
55604;BME280;41468;48.838;9.330;2023-07-28T07:26:31;97754.28;;;18.03;100.00
55604;BME280;41468;48.838;9.330;2023-07-28T07:28:58;97756.28;;;18.03;100.00
55604;BME280;41468;48.838;9.330;2023-07-28T07:31:25;97763.84;;;17.99;100.00
55604;BME280;41468;48.838;9.330;2023-07-28T07:33:52;97763.34;;;18.04;100.00
55604;BME280;41468;48.838;9.330;2023-07-28T07:36:19;97769.53;;;18.08;100.00
55604;BME280;41468;48.838;9.330;2023-07-28T07:38:46;97769.63;;;18.04;100.00
55604;BME280;41468;48.838;9.330;2023-07-28T07:41:14;97763.25;;;18.07;100.00
55604;BME280;41468;48.838;9.330;2023-07-28T07:43:47;97765.44;;;18.16;100.00
55604;BME280;41468;48.838;9.330;2023-07-28T07:46:15;97773.88;;;18.25;100.00
55604;BME280;41468;48.838;9.330;2023-07-28T07:48:42;97776.13;;;18.30;100.00
55604;BME280;41468;48.838;9.330;2023-07-28T07:51:09;97779.28;;;18.45;100.00
55604;BME280;41468;48.838;9.330;2023-07-28T07:53:37;97776.38;;;18.52;100.00
55604;BME280;41468;48.838;9.330;2023-07-28T07:56:05;97766.53;;;18.51;100.00
55604;BME280;41468;48.838;9.330;2023-07-28T07:58:32;97774.88;;;18.48;100.00
55604;BME280;41468;48.838;9.330;2023-07-28T08:00:59;97777.41;;;18.42;100.00
55604;BME280;41468;48.838;9.330;2023-07-28T08:03:26;97776.13;;;18.47;100.00
55604;BME280;41468;48.838;9.330;2023-07-28T08:05:53;97783.63;;;18.46;100.00
55604;BME280;41468;48.838;9.330;2023-07-28T08:08:26;97784.31;;;18.50;100.00
55604;BME280;41468;48.838;9.330;2023-07-28T08:10:54;97787.41;;;18.52;100.00
55604;BME280;41468;48.838;9.330;2023-07-28T08:13:21;97791.03;;;18.66;100.00
55604;BME280;41468;48.838;9.330;2023-07-28T08:15:48;97789.81;;;18.67;100.00
55604;BME280;41468;48.838;9.330;2023-07-28T08:18:15;97790.50;;;18.71;100.00
55604;BME280;41468;48.838;9.330;2023-07-28T08:20:42;97790.84;;;18.73;100.00
55604;BME280;41468;48.838;9.330;2023-07-28T08:23:09;97803.88;;;18.72;100.00
55604;BME280;41468;48.838;9.330;2023-07-28T08:25:36;97805.13;;;18.71;100.00
55604;BME280;41468;48.838;9.330;2023-07-28T08:28:03;97806.34;;;18.70;100.00
55604;BME280;41468;48.838;9.330;2023-07-28T08:30:30;97811.50;;;18.68;100.00
55604;BME280;41468;48.838;9.330;2023-07-28T08:32:59;97807.88;;;18.71;100.00
55604;BME280;41468;48.838;9.330;2023-07-28T08:35:26;97809.00;;;18.74;100.00
55604;BME280;41468;48.838;9.330;2023-07-28T08:37:53;97824.91;;;18.86;100.00
55604;BME280;41468;48.838;9.330;2023-07-28T08:40:19;97820.75;;;18.94;100.00
55604;BME280;41468;48.838;9.330;2023-07-28T08:42:46;97818.66;;;18.98;100.00
55604;BME280;41468;48.838;9.330;2023-07-28T08:45:14;97827.97;;;19.05;100.00
55604;BME280;41468;48.838;9.330;2023-07-28T08:47:41;97824.91;;;19.15;100.00
55604;BME280;41468;48.838;9.330;2023-07-28T08:50:09;97835.28;;;19.28;100.00
55604;BME280;41468;48.838;9.330;2023-07-28T08:52:35;97833.97;;;19.32;100.00
55604;BME280;41468;48.838;9.330;2023-07-28T08:55:02;97826.53;;;19.29;100.00
55604;BME280;41468;48.838;9.330;2023-07-28T08:57:29;97832.94;;;19.26;100.00
55604;BME280;41468;48.838;9.330;2023-07-28T08:59:56;97828.03;;;19.17;100.00
55604;BME280;41468;48.838;9.330;2023-07-28T09:02:23;97826.91;;;19.15;100.00
55604;BME280;41468;48.838;9.330;2023-07-28T09:04:50;97836.19;;;19.08;100.00
55604;BME280;41468;48.838;9.330;2023-07-28T09:07:17;97830.31;;;19.06;100.00
55604;BME280;41468;48.838;9.330;2023-07-28T09:09:43;97839.03;;;19.05;100.00
55604;BME280;41468;48.838;9.330;2023-07-28T09:12:10;97837.16;;;19.02;100.00
55604;BME280;41468;48.838;9.330;2023-07-28T09:14:38;97846.16;;;19.06;100.00
55604;BME280;41468;48.838;9.330;2023-07-28T09:17:09;97840.50;;;19.09;100.00
55604;BME280;41468;48.838;9.330;2023-07-28T09:19:50;97836.44;;;19.14;100.00
55604;BME280;41468;48.838;9.330;2023-07-28T09:22:18;97837.38;;;19.24;100.00
55604;BME280;41468;48.838;9.330;2023-07-28T09:24:48;97836.63;;;19.36;100.00
55604;BME280;41468;48.838;9.330;2023-07-28T09:27:23;97826.72;;;19.51;100.00
55604;BME280;41468;48.838;9.330;2023-07-28T09:29:52;97831.53;;;19.76;100.00
55604;BME280;41468;48.838;9.330;2023-07-28T09:32:30;97829.69;;;19.99;100.00
55604;BME280;41468;48.838;9.330;2023-07-28T09:35:12;97832.69;;;20.17;100.00
55604;BME280;41468;48.838;9.330;2023-07-28T09:37:51;97830.47;;;20.25;100.00
55604;BME280;41468;48.838;9.330;2023-07-28T09:40:21;97836.34;;;20.40;100.00
55604;BME280;41468;48.838;9.330;2023-07-28T09:42:49;97836.88;;;20.60;100.00
55604;BME280;41468;48.838;9.330;2023-07-28T09:45:21;97839.97;;;21.10;100.00
55604;BME280;41468;48.838;9.330;2023-07-28T09:48:06;97821.13;;;21.71;97.69
55604;BME280;41468;48.838;9.330;2023-07-28T09:50:38;97827.72;;;22.17;92.35
55604;BME280;41468;48.838;9.330;2023-07-28T09:53:08;97829.34;;;22.37;87.34
55604;BME280;41468;48.838;9.330;2023-07-28T09:55:38;97828.53;;;22.27;89.05
55604;BME280;41468;48.838;9.330;2023-07-28T09:58:09;97829.28;;;22.18;93.56
55604;BME280;41468;48.838;9.330;2023-07-28T10:00:36;97828.69;;;22.23;94.19
55604;BME280;41468;48.838;9.330;2023-07-28T10:03:04;97826.19;;;21.94;90.73
55604;BME280;41468;48.838;9.330;2023-07-28T10:05:43;97827.66;;;22.08;93.19
55604;BME280;41468;48.838;9.330;2023-07-28T10:08:11;97821.56;;;21.91;91.68
55604;BME280;41468;48.838;9.330;2023-07-28T10:10:40;97829.94;;;21.69;97.04
55604;BME280;41468;48.838;9.330;2023-07-28T10:13:19;97832.78;;;21.56;98.59
55604;BME280;41468;48.838;9.330;2023-07-28T10:15:46;97837.97;;;21.45;95.50
55604;BME280;41468;48.838;9.330;2023-07-28T10:18:14;97837.31;;;21.41;99.13
55604;BME280;41468;48.838;9.330;2023-07-28T10:20:44;97841.53;;;21.33;96.03
55604;BME280;41468;48.838;9.330;2023-07-28T10:23:22;97838.25;;;21.25;97.95
55604;BME280;41468;48.838;9.330;2023-07-28T10:25:57;97841.72;;;21.16;100.00
55604;BME280;41468;48.838;9.330;2023-07-28T10:30:59;97847.84;;;21.11;100.00
55604;BME280;41468;48.838;9.330;2023-07-28T10:33:34;97848.19;;;21.13;99.47
55604;BME280;41468;48.838;9.330;2023-07-28T10:41:34;97849.13;;;20.98;98.30
55604;BME280;41468;48.838;9.330;2023-07-28T10:44:02;97853.13;;;20.96;98.58
55604;BME280;41468;48.838;9.330;2023-07-28T10:46:29;97846.47;;;20.94;100.00
55604;BME280;41468;48.838;9.330;2023-07-28T10:48:55;97850.16;;;20.91;100.00
55604;BME280;41468;48.838;9.330;2023-07-28T10:51:24;97850.38;;;20.84;100.00
55604;BME280;41468;48.838;9.330;2023-07-28T10:54:00;97852.59;;;20.76;100.00
55604;BME280;41468;48.838;9.330;2023-07-28T10:56:29;97850.09;;;20.69;100.00
55604;BME280;41468;48.838;9.330;2023-07-28T10:59:03;97859.53;;;20.71;100.00
55604;BME280;41468;48.838;9.330;2023-07-28T11:01:32;97851.50;;;20.73;100.00
55604;BME280;41468;48.838;9.330;2023-07-28T11:04:11;97849.06;;;20.76;100.00
55604;BME280;41468;48.838;9.330;2023-07-28T11:06:41;97853.50;;;20.73;100.00
55604;BME280;41468;48.838;9.330;2023-07-28T11:09:09;97860.16;;;20.76;100.00
55604;BME280;41468;48.838;9.330;2023-07-28T11:11:40;97856.16;;;20.77;100.00
55604;BME280;41468;48.838;9.330;2023-07-28T11:14:15;97863.84;;;20.72;100.00
55604;BME280;41468;48.838;9.330;2023-07-28T11:16:42;97854.28;;;20.73;100.00
55604;BME280;41468;48.838;9.330;2023-07-28T11:19:11;97852.41;;;20.70;100.00
55604;BME280;41468;48.838;9.330;2023-07-28T11:21:39;97848.72;;;20.73;100.00
55604;BME280;41468;48.838;9.330;2023-07-28T11:24:19;97865.16;;;20.81;100.00
55604;BME280;41468;48.838;9.330;2023-07-28T11:26:46;97861.47;;;20.84;100.00
55604;BME280;41468;48.838;9.330;2023-07-28T11:29:13;97848.81;;;20.95;100.00
55604;BME280;41468;48.838;9.330;2023-07-28T11:31:41;97850.31;;;21.09;100.00
55604;BME280;41468;48.838;9.330;2023-07-28T11:34:18;97846.47;;;21.29;99.51
55604;BME280;41468;48.838;9.330;2023-07-28T11:36:46;97843.91;;;21.56;99.14
55604;BME280;41468;48.838;9.330;2023-07-28T11:39:13;97841.56;;;21.77;95.54
55604;BME280;41468;48.838;9.330;2023-07-28T11:41:41;97836.47;;;22.06;93.34
55604;BME280;41468;48.838;9.330;2023-07-28T11:44:08;97835.69;;;22.37;91.83
55604;BME280;41468;48.838;9.330;2023-07-28T11:46:37;97842.22;;;22.62;87.71
55604;BME280;41468;48.838;9.330;2023-07-28T11:51:45;97837.03;;;22.91;87.29
55604;BME280;41468;48.838;9.330;2023-07-28T11:54:15;97842.66;;;23.19;83.51
55604;BME280;41468;48.838;9.330;2023-07-28T11:56:43;97843.88;;;23.46;83.32
55604;BME280;41468;48.838;9.330;2023-07-28T11:59:11;97837.53;;;23.54;82.49
55604;BME280;41468;48.838;9.330;2023-07-28T12:07:08;97846.34;;;23.44;80.95
55604;BME280;41468;48.838;9.330;2023-07-28T12:12:46;97844.19;;;23.38;81.00
55604;BME280;41468;48.838;9.330;2023-07-28T12:15:26;97845.28;;;23.23;80.22
55604;BME280;41468;48.838;9.330;2023-07-28T12:20:46;97843.22;;;22.96;83.31
55604;BME280;41468;48.838;9.330;2023-07-28T12:23:18;97848.00;;;22.77;85.54
55604;BME280;41468;48.838;9.330;2023-07-28T12:25:49;97848.44;;;22.66;88.12
55604;BME280;41468;48.838;9.330;2023-07-28T12:28:19;97848.38;;;22.47;90.40
55604;BME280;41468;48.838;9.330;2023-07-28T12:30:47;97844.66;;;22.41;91.71
55604;BME280;41468;48.838;9.330;2023-07-28T12:33:19;97848.31;;;22.29;94.57
55604;BME280;41468;48.838;9.330;2023-07-28T12:35:48;97853.50;;;22.18;95.60
55604;BME280;41468;48.838;9.330;2023-07-28T12:38:17;97856.53;;;22.11;97.37
55604;BME280;41468;48.838;9.330;2023-07-28T12:40:47;97858.81;;;22.03;98.00
55604;BME280;41468;48.838;9.330;2023-07-28T12:43:16;97853.56;;;21.96;99.69
55604;BME280;41468;48.838;9.330;2023-07-28T12:45:46;97848.25;;;21.89;97.14
55604;BME280;41468;48.838;9.330;2023-07-28T12:48:24;97853.97;;;21.85;100.00
55604;BME280;41468;48.838;9.330;2023-07-28T12:50:51;97848.03;;;21.74;99.40
55604;BME280;41468;48.838;9.330;2023-07-28T12:53:29;97842.00;;;21.75;100.00
55604;BME280;41468;48.838;9.330;2023-07-28T12:55:56;97852.03;;;21.73;100.00
55604;BME280;41468;48.838;9.330;2023-07-28T12:58:26;97849.56;;;21.75;100.00
55604;BME280;41468;48.838;9.330;2023-07-28T13:00:57;97860.69;;;21.75;100.00
55604;BME280;41468;48.838;9.330;2023-07-28T13:03:28;97863.72;;;21.68;98.71
55604;BME280;41468;48.838;9.330;2023-07-28T13:05:55;97860.19;;;21.67;98.54
55604;BME280;41468;48.838;9.330;2023-07-28T13:08:22;97859.84;;;21.65;99.10
55604;BME280;41468;48.838;9.330;2023-07-28T13:10:52;97864.78;;;21.61;97.74
55604;BME280;41468;48.838;9.330;2023-07-28T13:13:21;97853.69;;;21.70;98.86
55604;BME280;41468;48.838;9.330;2023-07-28T13:15:48;97845.19;;;21.65;98.83
55604;BME280;41468;48.838;9.330;2023-07-28T13:18:15;97858.16;;;21.68;99.93
55604;BME280;41468;48.838;9.330;2023-07-28T13:20:42;97851.41;;;21.69;97.08
55604;BME280;41468;48.838;9.330;2023-07-28T13:23:08;97856.28;;;21.65;96.26